createdAt,value
2022-09-17T00:01:40.229Z,11.64
2022-09-17T00:04:11.138Z,11.62
2022-09-17T00:06:38.650Z,11.59
2022-09-17T00:09:07.674Z,11.58
2022-09-17T00:11:39.297Z,11.59
2022-09-17T00:14:09.189Z,11.55
2022-09-17T00:16:39.397Z,11.54
2022-09-17T00:19:10.060Z,11.58
2022-09-17T00:21:37.531Z,11.54
2022-09-17T00:24:06.696Z,11.55
2022-09-17T00:26:36.635Z,11.55
2022-09-17T00:29:04.841Z,11.70
2022-09-17T00:31:33.030Z,11.66
2022-09-17T00:34:01.867Z,11.65
2022-09-17T00:36:29.490Z,11.66
2022-09-17T00:38:59.282Z,11.69
2022-09-17T00:41:28.205Z,11.73
2022-09-17T00:43:59.462Z,11.72
2022-09-17T00:46:32.767Z,11.77
2022-09-17T00:49:04.231Z,11.73
2022-09-17T00:51:35.685Z,11.69
2022-09-17T00:54:04.986Z,11.63
2022-09-17T00:56:34.109Z,11.58
2022-09-17T00:59:03.745Z,11.55
2022-09-17T01:01:31.596Z,11.52
2022-09-17T01:03:59.326Z,11.54
2022-09-17T01:06:33.420Z,11.59
2022-09-17T01:09:11.521Z,11.49
2022-09-17T01:11:53.878Z,11.49
2022-09-17T01:14:35.848Z,11.52
2022-09-17T01:17:09.112Z,11.51
2022-09-17T01:20:05.129Z,11.60
2022-09-17T01:22:34.998Z,11.64
2022-09-17T01:25:17.971Z,11.57
2022-09-17T01:28:12.386Z,11.60
2022-09-17T01:30:55.660Z,11.50
2022-09-17T01:33:28.667Z,11.56
2022-09-17T01:36:03.769Z,11.52
2022-09-17T01:38:34.473Z,11.50
2022-09-17T01:41:07.688Z,11.53
2022-09-17T01:43:39.241Z,11.45
2022-09-17T01:46:11.268Z,11.43
2022-09-17T01:48:42.950Z,11.32
2022-09-17T01:51:12.687Z,11.30
2022-09-17T01:53:44.394Z,11.30
2022-09-17T01:56:16.298Z,11.20
2022-09-17T01:58:46.091Z,11.30
2022-09-17T02:01:17.389Z,11.33
2022-09-17T02:03:49.267Z,11.34
2022-09-17T02:06:19.205Z,11.22
2022-09-17T02:08:49.516Z,11.34
2022-09-17T02:11:17.279Z,11.41
2022-09-17T02:13:46.109Z,11.34
2022-09-17T02:16:17.936Z,11.30
2022-09-17T02:18:47.895Z,11.26
2022-09-17T02:21:18.473Z,11.31
2022-09-17T02:23:54.171Z,11.16
2022-09-17T02:26:22.128Z,11.06
2022-09-17T02:28:52.679Z,11.04
2022-09-17T02:31:22.708Z,11.15
2022-09-17T02:33:53.915Z,11.08
2022-09-17T02:36:23.710Z,10.83
2022-09-17T02:38:59.017Z,10.93
2022-09-17T02:41:32.886Z,10.92
2022-09-17T02:44:11.803Z,10.95
2022-09-17T02:46:52.010Z,10.88
2022-09-17T02:49:28.686Z,10.78
2022-09-17T02:52:04.451Z,10.78
2022-09-17T02:54:36.277Z,10.65
2022-09-17T02:57:10.137Z,10.62
2022-09-17T02:59:42.996Z,10.59
2022-09-17T03:02:18.387Z,10.58
2022-09-17T03:04:47.351Z,10.66
2022-09-17T03:07:15.046Z,10.59
2022-09-17T03:09:43.330Z,10.59
2022-09-17T03:12:11.237Z,10.58
2022-09-17T03:14:38.651Z,10.51
2022-09-17T03:17:06.205Z,10.54
2022-09-17T03:19:35.016Z,10.50
2022-09-17T03:22:02.513Z,10.52
2022-09-17T03:24:29.961Z,10.49
2022-09-17T03:26:57.354Z,10.43
2022-09-17T03:29:25.441Z,10.47
2022-09-17T03:31:52.943Z,10.44
2022-09-17T03:34:20.873Z,10.29
2022-09-17T03:36:49.653Z,10.24
2022-09-17T03:39:17.110Z,10.09
2022-09-17T03:41:44.565Z,10.01
2022-09-17T03:44:12.081Z,9.96
2022-09-17T03:46:40.381Z,9.89
2022-09-17T03:49:08.910Z,9.86
2022-09-17T03:51:36.471Z,9.87
2022-09-17T03:54:05.250Z,9.88
2022-09-17T03:56:32.649Z,9.77
2022-09-17T03:59:00.296Z,9.80
2022-09-17T04:01:28.683Z,9.78
2022-09-17T04:03:56.485Z,9.60
2022-09-17T04:06:23.990Z,9.61
2022-09-17T04:08:51.506Z,9.78
2022-09-17T04:11:20.294Z,9.69
2022-09-17T04:13:47.785Z,9.73
2022-09-17T04:16:15.983Z,9.77
2022-09-17T04:18:43.522Z,9.77
2022-09-17T04:21:10.973Z,9.80
2022-09-17T04:23:38.397Z,9.73
2022-09-17T04:26:06.061Z,9.76
2022-09-17T04:28:34.822Z,9.72
2022-09-17T04:31:02.355Z,9.61
2022-09-17T04:33:29.809Z,9.58
2022-09-17T04:35:57.204Z,9.62
2022-09-17T04:38:24.702Z,9.65
2022-09-17T04:40:52.170Z,9.57
2022-09-17T04:43:19.603Z,9.56
2022-09-17T04:45:49.231Z,9.47
2022-09-17T04:48:16.718Z,9.54
2022-09-17T04:50:44.163Z,9.56
2022-09-17T04:53:12.457Z,9.52
2022-09-17T04:55:39.887Z,9.47
2022-09-17T04:58:07.311Z,9.48
2022-09-17T05:00:35.249Z,9.45
2022-09-17T05:03:04.573Z,9.45
2022-09-17T05:05:32.004Z,9.35
2022-09-17T05:07:59.443Z,9.36
2022-09-17T05:10:27.066Z,9.31
2022-09-17T05:12:56.051Z,9.43
2022-09-17T05:15:24.713Z,9.27
2022-09-17T05:17:52.141Z,9.42
2022-09-17T05:20:20.957Z,9.38
2022-09-17T05:22:49.659Z,9.23
2022-09-17T05:25:18.636Z,9.22
2022-09-17T05:27:46.102Z,9.36
2022-09-17T05:30:13.976Z,9.36
2022-09-17T05:32:41.598Z,9.20
2022-09-17T05:35:10.251Z,9.25
2022-09-17T05:37:39.277Z,9.33
2022-09-17T05:40:08.747Z,9.30
2022-09-17T05:42:36.371Z,9.32
2022-09-17T05:45:04.369Z,9.30
2022-09-17T05:47:31.879Z,9.18
2022-09-17T05:49:59.686Z,9.29
2022-09-17T05:52:28.727Z,9.22
2022-09-17T05:54:57.595Z,9.38
2022-09-17T05:57:25.594Z,9.36
2022-09-17T05:59:53.021Z,9.37
2022-09-17T06:02:20.542Z,9.44
2022-09-17T06:04:48.049Z,9.54
2022-09-17T06:07:15.499Z,9.51
2022-09-17T06:09:42.921Z,9.63
2022-09-17T06:12:11.725Z,9.58
2022-09-17T06:14:39.149Z,9.73
2022-09-17T06:17:06.569Z,9.72
2022-09-17T06:19:33.997Z,9.83
2022-09-17T06:22:01.704Z,9.94
2022-09-17T06:24:29.246Z,10.11
2022-09-17T06:26:56.692Z,10.27
2022-09-17T06:29:25.520Z,10.41
2022-09-17T06:31:54.019Z,10.61
2022-09-17T06:34:21.562Z,10.72
2022-09-17T06:36:49.742Z,11.01
2022-09-17T06:39:17.338Z,11.22
2022-09-17T06:41:45.557Z,11.12
2022-09-17T06:44:13.034Z,11.08
2022-09-17T06:46:42.939Z,10.92
2022-09-17T06:49:11.586Z,11.28
2022-09-17T06:51:38.986Z,11.58
2022-09-17T06:54:06.527Z,11.71
2022-09-17T06:56:34.512Z,11.89
2022-09-17T06:59:02.217Z,12.00
2022-09-17T07:01:29.938Z,12.20
2022-09-17T07:03:59.952Z,12.09
2022-09-17T07:06:27.413Z,11.85
2022-09-17T07:08:54.928Z,11.92
2022-09-17T07:11:22.365Z,11.77
2022-09-17T07:13:49.854Z,11.35
2022-09-17T07:16:17.479Z,11.07
2022-09-17T07:18:45.057Z,10.91
2022-09-17T07:21:14.512Z,11.34
2022-09-17T07:23:42.859Z,11.89
2022-09-17T07:26:14.672Z,11.98
2022-09-17T07:28:43.596Z,12.26
2022-09-17T07:31:16.139Z,12.27
2022-09-17T07:33:45.095Z,12.45
2022-09-17T07:36:15.451Z,12.36
2022-09-17T07:38:42.965Z,13.01
2022-09-17T07:41:13.343Z,13.42
2022-09-17T07:43:40.831Z,13.45
2022-09-17T07:46:10.145Z,13.33
2022-09-17T07:48:37.846Z,13.67
2022-09-17T07:51:05.541Z,13.38
2022-09-17T07:53:34.297Z,13.90
2022-09-17T07:56:02.714Z,13.91
2022-09-17T07:58:31.473Z,13.91
2022-09-17T08:01:03.040Z,14.05
2022-09-17T08:03:30.571Z,13.87
2022-09-17T08:06:03.858Z,13.80
2022-09-17T08:08:34.023Z,13.96
2022-09-17T08:11:02.946Z,13.91
2022-09-17T08:13:33.514Z,14.06
2022-09-17T08:16:01.773Z,13.98
2022-09-17T08:18:29.885Z,14.09
2022-09-17T08:20:58.090Z,13.59
2022-09-17T08:23:25.704Z,13.67
2022-09-17T08:25:55.381Z,13.88
2022-09-17T08:28:22.915Z,13.73
2022-09-17T08:30:50.438Z,13.70
2022-09-17T08:33:18.150Z,13.67
2022-09-17T08:35:52.077Z,13.73
2022-09-17T08:38:19.728Z,13.73
2022-09-17T08:40:57.404Z,13.61
2022-09-17T08:43:25.899Z,13.60
2022-09-17T08:45:54.939Z,13.80
2022-09-17T08:48:22.899Z,13.96
2022-09-17T08:50:50.851Z,14.08
2022-09-17T08:53:34.947Z,14.33
2022-09-17T08:56:09.516Z,14.41
2022-09-17T08:58:58.726Z,14.67
2022-09-17T09:01:35.658Z,14.54
2022-09-17T09:04:31.126Z,14.58
2022-09-17T09:07:02.482Z,14.78
2022-09-17T09:09:34.581Z,14.82
2022-09-17T09:12:06.527Z,14.58
2022-09-17T09:14:37.157Z,14.35
2022-09-17T09:17:09.017Z,14.25
2022-09-17T09:19:45.013Z,14.20
2022-09-17T09:22:24.394Z,14.39
2022-09-17T09:25:00.358Z,14.88
2022-09-17T09:27:29.879Z,14.88
2022-09-17T09:30:03.840Z,15.04
2022-09-17T09:32:45.259Z,15.32
2022-09-17T09:35:18.849Z,15.42
2022-09-17T09:37:53.554Z,15.71
2022-09-17T09:40:27.177Z,15.53
2022-09-17T09:42:57.467Z,15.11
2022-09-17T09:45:33.450Z,15.21
2022-09-17T09:48:04.511Z,14.95
2022-09-17T09:51:04.719Z,15.25
2022-09-17T09:53:32.601Z,15.11
2022-09-17T09:56:07.409Z,15.23
2022-09-17T09:58:38.411Z,15.32
2022-09-17T10:01:12.522Z,15.37
2022-09-17T10:03:45.869Z,15.33
2022-09-17T10:06:14.448Z,15.18
2022-09-17T10:08:43.610Z,15.09
2022-09-17T10:11:21.526Z,15.47
2022-09-17T10:13:50.459Z,15.47
2022-09-17T10:16:21.184Z,15.58
2022-09-17T10:18:49.508Z,15.42
2022-09-17T10:21:20.959Z,15.40
2022-09-17T10:23:48.706Z,15.76
2022-09-17T10:26:22.833Z,15.60
2022-09-17T10:28:52.824Z,15.80
2022-09-17T10:31:20.854Z,15.95
2022-09-17T10:33:57.482Z,15.87
2022-09-17T10:36:42.192Z,16.03
2022-09-17T10:39:21.099Z,16.30
2022-09-17T10:41:54.886Z,15.90
2022-09-17T10:44:25.334Z,15.31
2022-09-17T10:46:53.391Z,15.18
2022-09-17T10:49:32.451Z,15.53
2022-09-17T10:52:12.461Z,15.69
2022-09-17T10:55:06.143Z,15.71
2022-09-17T10:57:55.074Z,16.04
2022-09-17T11:00:24.589Z,16.19
2022-09-17T11:03:24.397Z,16.04
2022-09-17T11:06:15.506Z,16.54
2022-09-17T11:08:49.631Z,16.60
2022-09-17T11:11:19.988Z,15.76
2022-09-17T11:13:53.211Z,14.13
2022-09-17T11:16:35.531Z,13.78
2022-09-17T11:19:11.987Z,13.79
2022-09-17T11:21:46.663Z,14.13
2022-09-17T11:24:48.269Z,14.47
2022-09-17T11:27:35.719Z,14.91
2022-09-17T11:30:06.168Z,14.83
2022-09-17T11:33:03.938Z,14.96
2022-09-17T11:35:33.445Z,15.27
2022-09-17T11:38:04.969Z,15.50
2022-09-17T11:40:37.714Z,15.84
2022-09-17T11:43:08.447Z,15.73
2022-09-17T11:45:39.376Z,15.76
2022-09-17T11:48:12.537Z,16.06
2022-09-17T11:50:43.612Z,15.58
2022-09-17T11:53:16.572Z,15.55
2022-09-17T11:55:48.450Z,15.77
2022-09-17T11:58:20.625Z,15.82
2022-09-17T12:00:52.223Z,15.53
2022-09-17T12:03:26.843Z,15.86
2022-09-17T12:05:56.369Z,15.91
2022-09-17T12:08:27.157Z,16.72
2022-09-17T12:10:59.921Z,16.57
2022-09-17T12:13:32.153Z,15.91
2022-09-17T12:16:10.757Z,16.09
2022-09-17T12:18:47.926Z,16.25
2022-09-17T12:21:18.809Z,16.67
2022-09-17T12:23:49.391Z,16.09
2022-09-17T12:26:35.297Z,16.33
2022-09-17T12:29:06.884Z,16.05
2022-09-17T12:31:44.520Z,16.52
2022-09-17T12:34:23.732Z,16.48
2022-09-17T12:36:52.702Z,16.35
2022-09-17T12:39:51.319Z,16.51
2022-09-17T12:42:31.204Z,16.69
2022-09-17T12:45:17.018Z,17.45
2022-09-17T12:48:22.700Z,16.35
2022-09-17T12:50:59.761Z,16.06
2022-09-17T12:53:30.561Z,16.04
2022-09-17T12:56:07.216Z,15.64
2022-09-17T12:58:44.263Z,15.03
2022-09-17T13:01:15.280Z,15.10
2022-09-17T13:03:45.630Z,14.74
2022-09-17T13:06:36.133Z,14.85
2022-09-17T13:09:11.366Z,15.11
2022-09-17T13:12:07.726Z,15.73
2022-09-17T13:14:51.742Z,16.17
2022-09-17T13:17:23.989Z,16.63
2022-09-17T13:20:00.441Z,16.65
2022-09-17T13:22:33.412Z,17.05
2022-09-17T13:25:06.577Z,17.68
2022-09-17T13:27:38.597Z,17.76
2022-09-17T13:30:07.681Z,17.35
2022-09-17T13:32:55.031Z,16.85
2022-09-17T13:35:50.812Z,16.76
2022-09-17T13:38:23.796Z,16.61
2022-09-17T13:40:52.093Z,16.19
2022-09-17T13:43:23.970Z,15.59
2022-09-17T13:46:12.596Z,15.36
2022-09-17T13:49:01.954Z,14.91
2022-09-17T13:51:59.385Z,14.69
2022-09-17T13:54:38.792Z,14.88
2022-09-17T13:57:14.141Z,14.86
2022-09-17T13:59:54.805Z,14.48
2022-09-17T14:02:36.566Z,14.09
2022-09-17T14:05:34.257Z,14.16
2022-09-17T14:08:30.418Z,14.68
2022-09-17T14:11:02.542Z,14.92
2022-09-17T14:13:42.982Z,14.50
2022-09-17T14:16:45.877Z,13.76
2022-09-17T14:19:30.515Z,14.08
2022-09-17T14:22:03.693Z,15.00
2022-09-17T14:24:36.252Z,15.13
2022-09-17T14:27:27.199Z,15.35
2022-09-17T14:30:05.303Z,15.10
2022-09-17T14:32:39.402Z,14.79
2022-09-17T14:35:19.905Z,15.23
2022-09-17T14:37:51.953Z,15.68
2022-09-17T14:40:21.002Z,16.15
2022-09-17T14:42:55.053Z,16.48
2022-09-17T14:45:25.098Z,16.51
2022-09-17T14:48:21.087Z,15.96
2022-09-17T14:50:48.670Z,15.91
2022-09-17T14:53:18.830Z,16.09
2022-09-17T14:55:47.690Z,16.15
2022-09-17T14:58:32.269Z,16.03
2022-09-17T15:00:59.945Z,15.65
2022-09-17T15:03:27.656Z,15.37
2022-09-17T15:05:55.429Z,15.44
2022-09-17T15:08:24.433Z,15.77
2022-09-17T15:10:54.318Z,15.62
2022-09-17T15:13:26.576Z,15.64
2022-09-17T15:15:59.077Z,16.01
2022-09-17T15:18:33.852Z,15.86
2022-09-17T15:21:03.498Z,16.11
2022-09-17T15:23:32.475Z,16.24
2022-09-17T15:26:00.501Z,16.03
2022-09-17T15:28:30.798Z,15.93
2022-09-17T15:30:59.701Z,15.96
2022-09-17T15:33:27.819Z,16.12
2022-09-17T15:36:10.056Z,15.84
2022-09-17T15:38:39.202Z,15.96
2022-09-17T15:41:24.455Z,16.27
2022-09-17T15:43:54.669Z,15.97
2022-09-17T15:46:30.123Z,15.62
2022-09-17T15:48:59.609Z,15.14
2022-09-17T15:51:28.670Z,14.79
2022-09-17T15:53:58.963Z,14.39
2022-09-17T15:56:29.141Z,14.40
2022-09-17T15:59:00.846Z,14.30
2022-09-17T16:01:54.867Z,13.93
2022-09-17T16:04:28.754Z,13.71
2022-09-17T16:06:58.929Z,13.57
2022-09-17T16:09:53.819Z,13.53
2022-09-17T16:12:22.967Z,13.57
2022-09-17T16:14:52.371Z,13.48
2022-09-17T16:17:25.837Z,13.48
2022-09-17T16:19:55.677Z,13.43
2022-09-17T16:22:23.495Z,13.46
2022-09-17T16:24:50.938Z,13.41
2022-09-17T16:27:22.083Z,13.34
2022-09-17T16:29:50.289Z,13.18
2022-09-17T16:32:17.794Z,13.15
2022-09-17T16:34:45.254Z,13.21
2022-09-17T16:37:14.101Z,13.29
2022-09-17T16:39:41.803Z,13.24
2022-09-17T16:42:09.279Z,13.39
2022-09-17T16:44:36.887Z,13.40
2022-09-17T16:47:04.584Z,13.42
2022-09-17T16:49:32.125Z,13.48
2022-09-17T16:51:59.604Z,13.53
2022-09-17T16:54:28.454Z,13.51
2022-09-17T16:56:56.454Z,13.56
2022-09-17T16:59:26.259Z,13.57
2022-09-17T17:01:53.800Z,13.50
2022-09-17T17:04:21.424Z,13.43
2022-09-17T17:06:48.938Z,13.23
2022-09-17T17:09:16.647Z,12.94
2022-09-17T17:11:51.789Z,12.82
2022-09-17T17:14:19.542Z,12.66
2022-09-17T17:16:47.155Z,12.48
2022-09-17T17:19:14.733Z,12.43
2022-09-17T17:21:47.155Z,12.37
2022-09-17T17:24:14.896Z,12.29
2022-09-17T17:26:42.380Z,12.29
2022-09-17T17:29:14.412Z,12.26
2022-09-17T17:31:42.310Z,12.07
2022-09-17T17:34:10.452Z,12.13
2022-09-17T17:36:37.896Z,11.96
2022-09-17T17:39:05.384Z,11.94
2022-09-17T17:41:32.927Z,11.71
2022-09-17T17:44:00.503Z,11.70
2022-09-17T17:46:29.341Z,11.58
2022-09-17T17:48:56.971Z,11.61
2022-09-17T17:51:27.465Z,11.44
2022-09-17T17:53:54.902Z,11.50
2022-09-17T17:56:23.376Z,11.54
2022-09-17T17:58:55.085Z,11.42
2022-09-17T18:01:24.845Z,11.46
2022-09-17T18:03:56.986Z,11.37
2022-09-17T18:06:28.061Z,11.46
2022-09-17T18:08:56.195Z,11.49
2022-09-17T18:11:24.470Z,11.53
2022-09-17T18:13:52.765Z,11.51
2022-09-17T18:16:20.343Z,11.59
2022-09-17T18:18:48.200Z,11.60
2022-09-17T18:21:18.949Z,11.64
2022-09-17T18:23:46.721Z,11.70
2022-09-17T18:26:15.392Z,11.82
2022-09-17T18:28:42.924Z,11.83
2022-09-17T18:31:12.740Z,11.67
2022-09-17T18:33:40.250Z,11.66
2022-09-17T18:36:07.803Z,11.40
2022-09-17T18:38:39.427Z,11.41
2022-09-17T18:41:08.475Z,11.32
2022-09-17T18:43:35.975Z,11.14
2022-09-17T18:46:05.365Z,11.24
2022-09-17T18:48:36.289Z,11.22
2022-09-17T18:51:06.171Z,11.12
2022-09-17T18:53:37.010Z,11.08
2022-09-17T18:56:06.595Z,11.05
2022-09-17T18:58:34.894Z,11.05
2022-09-17T19:01:05.879Z,10.93
2022-09-17T19:03:33.373Z,10.99
2022-09-17T19:06:01.200Z,10.87
2022-09-17T19:08:28.701Z,10.73
2022-09-17T19:10:57.775Z,10.80
2022-09-17T19:13:27.059Z,10.75
2022-09-17T19:15:59.074Z,10.71
2022-09-17T19:18:26.670Z,10.60
2022-09-17T19:21:00.085Z,10.71
2022-09-17T19:23:27.534Z,10.77
2022-09-17T19:25:55.041Z,10.82
2022-09-17T19:28:23.993Z,10.90
2022-09-17T19:30:51.569Z,11.12
2022-09-17T19:33:19.115Z,11.13
2022-09-17T19:35:46.698Z,10.96
2022-09-17T19:38:14.181Z,11.04
2022-09-17T19:40:41.810Z,11.05
2022-09-17T19:43:09.318Z,11.03
2022-09-17T19:45:38.277Z,11.13
2022-09-17T19:48:05.751Z,11.21
2022-09-17T19:50:33.253Z,11.24
2022-09-17T19:53:00.752Z,11.26
2022-09-17T19:55:28.218Z,11.34
2022-09-17T19:57:55.686Z,11.35
2022-09-17T20:00:23.274Z,11.39
2022-09-17T20:02:52.327Z,11.35
2022-09-17T20:05:19.805Z,11.42
2022-09-17T20:07:47.904Z,11.34
2022-09-17T20:10:15.531Z,11.35
2022-09-17T20:12:43.047Z,11.41
2022-09-17T20:15:11.496Z,11.22
2022-09-17T20:17:39.017Z,11.24
2022-09-17T20:20:09.694Z,11.17
2022-09-17T20:22:37.215Z,11.03
2022-09-17T20:25:05.323Z,10.82
2022-09-17T20:27:33.165Z,10.63
2022-09-17T20:30:00.652Z,10.62
2022-09-17T20:32:28.552Z,10.58
2022-09-17T20:34:56.071Z,10.41
2022-09-17T20:38:01.684Z,10.42
2022-09-17T20:40:12.506Z,10.36
2022-09-17T20:42:40.121Z,10.36
2022-09-17T20:45:08.316Z,10.32
2022-09-17T20:47:36.504Z,10.29
2022-09-17T20:50:04.004Z,10.31
2022-09-17T20:52:33.250Z,10.35
2022-09-17T20:55:00.739Z,10.42
2022-09-17T20:57:28.233Z,10.56
2022-09-17T21:00:00.249Z,10.62
2022-09-17T21:02:28.116Z,10.61
2022-09-17T21:04:55.662Z,10.68
2022-09-17T21:07:23.193Z,10.78
2022-09-17T21:09:52.022Z,10.72
2022-09-17T21:12:20.807Z,10.67
2022-09-17T21:14:49.766Z,10.49
2022-09-17T21:17:17.380Z,10.55
2022-09-17T21:19:44.950Z,10.48
2022-09-17T21:22:12.394Z,10.38
2022-09-17T21:24:39.890Z,10.30
2022-09-17T21:27:09.269Z,10.22
2022-09-17T21:29:36.759Z,10.18
2022-09-17T21:32:04.258Z,10.07
2022-09-17T21:34:31.727Z,10.16
2022-09-17T21:36:59.225Z,10.19
2022-09-17T21:39:26.698Z,10.10
2022-09-17T21:41:54.545Z,10.02
2022-09-17T21:44:23.454Z,9.96
2022-09-17T21:46:57.080Z,10.02
2022-09-17T21:49:24.760Z,9.87
2022-09-17T21:51:52.302Z,9.92
2022-09-17T21:54:19.961Z,9.93
2022-09-17T21:56:47.834Z,9.90
2022-09-17T21:59:16.301Z,9.96
2022-09-17T22:01:50.175Z,9.99
2022-09-17T22:04:19.511Z,9.97
2022-09-17T22:06:47.943Z,9.97
2022-09-17T22:09:17.913Z,10.03
2022-09-17T22:11:45.392Z,10.04
2022-09-17T22:14:14.573Z,10.01
2022-09-17T22:16:45.070Z,9.96
2022-09-17T22:19:15.033Z,9.97
2022-09-17T22:21:44.547Z,9.94
2022-09-17T22:24:12.333Z,10.12
2022-09-17T22:26:43.227Z,10.18
2022-09-17T22:29:12.639Z,10.11
2022-09-17T22:31:40.927Z,10.20
2022-09-17T22:34:11.001Z,10.12
2022-09-17T22:36:39.428Z,10.09
2022-09-17T22:39:09.280Z,9.86
2022-09-17T22:41:39.083Z,9.94
2022-09-17T22:44:08.054Z,10.00
2022-09-17T22:46:39.029Z,9.92
2022-09-17T22:49:07.221Z,9.97
2022-09-17T22:51:36.394Z,9.92
2022-09-17T22:54:04.472Z,9.94
2022-09-17T22:56:32.041Z,9.92
2022-09-17T22:58:59.895Z,9.90
2022-09-17T23:01:29.698Z,9.88
2022-09-17T23:03:57.951Z,9.86
2022-09-17T23:06:27.070Z,9.92
2022-09-17T23:08:56.438Z,9.84
2022-09-17T23:11:26.409Z,9.81
2022-09-17T23:13:57.474Z,9.84
2022-09-17T23:16:25.944Z,9.97
2022-09-17T23:18:53.541Z,9.95
2022-09-17T23:21:21.622Z,10.07
2022-09-17T23:23:52.250Z,10.06
2022-09-17T23:26:22.833Z,10.14
2022-09-17T23:28:51.263Z,10.22
2022-09-17T23:31:20.975Z,10.20
2022-09-17T23:33:49.070Z,10.20
2022-09-17T23:36:19.218Z,10.21
2022-09-17T23:38:47.896Z,10.16
2022-09-17T23:41:16.999Z,10.22
2022-09-17T23:43:48.972Z,10.06
2022-09-17T23:46:16.900Z,10.00
2022-09-17T23:48:44.815Z,9.99
2022-09-17T23:51:12.348Z,9.83
2022-09-17T23:53:39.941Z,10.01
2022-09-17T23:56:13.110Z,10.14
2022-09-17T23:58:40.678Z,10.23
